createdAt,value
2018-08-30T00:02:12.294Z,17.30
2018-08-30T00:04:39.448Z,17.20
2018-08-30T00:07:06.607Z,17.20
2018-08-30T00:09:33.729Z,17.10
2018-08-30T00:12:01.766Z,17.00
2018-08-30T00:14:29.042Z,17.00
2018-08-30T00:16:56.226Z,17.00
2018-08-30T00:19:23.357Z,16.90
2018-08-30T00:21:50.491Z,16.90
2018-08-30T00:24:17.693Z,16.90
2018-08-30T00:26:44.839Z,16.80
2018-08-30T00:29:11.982Z,16.90
2018-08-30T00:31:39.125Z,16.90
2018-08-30T00:34:06.294Z,16.90
2018-08-30T00:36:33.404Z,16.90
2018-08-30T00:39:01.021Z,17.00
2018-08-30T00:41:28.268Z,17.10
2018-08-30T00:43:55.308Z,17.20
2018-08-30T00:46:22.442Z,17.20
2018-08-30T00:48:49.560Z,17.20
2018-08-30T00:51:16.725Z,17.30
2018-08-30T00:53:43.945Z,17.40
2018-08-30T00:56:11.161Z,17.30
2018-08-30T00:58:38.293Z,17.20
2018-08-30T01:01:05.421Z,16.90
2018-08-30T01:03:32.538Z,16.80
2018-08-30T01:05:59.655Z,16.70
2018-08-30T01:08:26.829Z,16.70
2018-08-30T01:10:53.993Z,16.60
2018-08-30T01:13:21.128Z,16.70
2018-08-30T01:15:48.272Z,16.90
2018-08-30T01:18:15.412Z,17.00
2018-08-30T01:20:42.579Z,17.00
2018-08-30T01:23:09.815Z,16.90
2018-08-30T01:25:37.246Z,17.00
2018-08-30T01:28:04.424Z,17.00
2018-08-30T01:30:31.603Z,16.90
2018-08-30T01:32:58.737Z,16.80
2018-08-30T01:35:25.851Z,16.70
2018-08-30T01:37:53.074Z,16.60
2018-08-30T01:40:20.370Z,16.40
2018-08-30T01:42:47.523Z,16.50
2018-08-30T01:45:14.664Z,16.40
2018-08-30T01:47:41.859Z,16.40
2018-08-30T01:50:09.019Z,16.40
2018-08-30T01:52:36.145Z,16.50
2018-08-30T01:55:03.289Z,16.50
2018-08-30T01:57:30.414Z,16.60
2018-08-30T01:59:57.582Z,16.60
2018-08-30T02:02:24.707Z,16.60
2018-08-30T02:04:51.833Z,16.70
2018-08-30T02:07:18.994Z,16.80
2018-08-30T02:09:46.211Z,16.80
2018-08-30T02:12:13.369Z,16.80
2018-08-30T02:14:40.513Z,16.80
2018-08-30T02:17:07.622Z,16.90
2018-08-30T02:19:34.755Z,17.00
2018-08-30T02:22:01.882Z,17.10
2018-08-30T02:24:29.007Z,17.00
2018-08-30T02:26:56.126Z,17.00
2018-08-30T02:29:23.254Z,17.00
2018-08-30T02:31:50.391Z,16.90
2018-08-30T02:34:17.523Z,17.00
2018-08-30T02:36:44.700Z,16.90
2018-08-30T02:39:11.887Z,16.80
2018-08-30T02:41:39.136Z,16.90
2018-08-30T02:44:06.296Z,17.00
2018-08-30T02:46:33.687Z,17.00
2018-08-30T02:49:00.876Z,16.90
2018-08-30T02:51:27.951Z,17.00
2018-08-30T02:53:55.086Z,16.90
2018-08-30T02:56:22.209Z,16.90
2018-08-30T02:58:49.642Z,16.90
2018-08-30T03:01:16.999Z,16.90
2018-08-30T03:03:44.171Z,16.90
2018-08-30T03:06:11.459Z,16.90
2018-08-30T03:08:38.582Z,16.90
2018-08-30T03:11:06.036Z,17.10
2018-08-30T03:13:33.166Z,17.10
2018-08-30T03:16:00.298Z,17.10
2018-08-30T03:18:27.450Z,17.10
2018-08-30T03:20:54.632Z,16.90
2018-08-30T03:23:21.778Z,17.00
2018-08-30T03:25:49.669Z,16.90
2018-08-30T03:28:16.850Z,16.90
2018-08-30T03:30:44.059Z,16.90
2018-08-30T03:33:11.398Z,17.00
2018-08-30T03:35:38.531Z,17.00
2018-08-30T03:38:05.677Z,17.00
2018-08-30T03:40:32.829Z,17.00
2018-08-30T03:43:00.034Z,16.90
2018-08-30T03:45:27.162Z,16.90
2018-08-30T03:47:54.292Z,16.90
2018-08-30T03:50:21.451Z,16.90
2018-08-30T03:52:48.593Z,16.80
2018-08-30T03:55:15.862Z,16.90
2018-08-30T03:57:43.039Z,16.90
2018-08-30T04:00:10.219Z,16.90
2018-08-30T04:02:37.334Z,16.80
2018-08-30T04:05:04.741Z,16.80
2018-08-30T04:07:31.858Z,16.80
2018-08-30T04:09:59.021Z,16.70
2018-08-30T04:12:26.250Z,16.70
2018-08-30T04:14:53.352Z,16.70
2018-08-30T04:17:20.493Z,16.70
2018-08-30T04:19:47.642Z,16.70
2018-08-30T04:22:15.046Z,16.70
2018-08-30T04:24:42.242Z,16.70
2018-08-30T04:27:09.395Z,16.60
2018-08-30T04:29:36.498Z,16.50
2018-08-30T04:32:03.713Z,16.40
2018-08-30T04:34:30.818Z,16.20
2018-08-30T04:36:57.919Z,16.10
2018-08-30T04:39:25.058Z,16.00
2018-08-30T04:41:52.184Z,16.00
2018-08-30T04:44:19.354Z,16.00
2018-08-30T04:46:46.550Z,15.90
2018-08-30T04:49:13.700Z,15.80
2018-08-30T04:51:40.849Z,15.80
2018-08-30T04:54:07.978Z,15.90
2018-08-30T04:56:35.096Z,16.00
2018-08-30T04:59:02.254Z,16.20
2018-08-30T05:01:29.395Z,16.20
2018-08-30T05:03:56.719Z,16.20
2018-08-30T05:06:23.856Z,16.30
2018-08-30T05:08:51.075Z,16.20
2018-08-30T05:11:18.278Z,16.40
2018-08-30T05:13:45.473Z,16.30
2018-08-30T05:16:12.689Z,16.40
2018-08-30T05:18:39.891Z,16.40
2018-08-30T05:21:07.041Z,16.40
2018-08-30T05:23:34.163Z,16.50
2018-08-30T05:26:01.288Z,16.60
2018-08-30T05:28:28.542Z,16.70
2018-08-30T05:30:55.779Z,16.70
2018-08-30T05:33:22.918Z,16.70
2018-08-30T05:35:50.197Z,16.60
2018-08-30T05:38:17.283Z,16.70
2018-08-30T05:40:44.553Z,16.60
2018-08-30T05:43:11.741Z,16.60
2018-08-30T05:45:39.206Z,16.60
2018-08-30T05:48:06.342Z,16.60
2018-08-30T05:50:33.474Z,16.70
2018-08-30T05:53:00.611Z,16.70
2018-08-30T05:55:27.750Z,16.70
2018-08-30T05:57:54.908Z,16.80
2018-08-30T06:00:22.130Z,16.90
2018-08-30T06:02:49.450Z,16.90
2018-08-30T06:05:16.663Z,16.80
2018-08-30T06:07:44.420Z,16.80
2018-08-30T06:10:11.725Z,16.80
2018-08-30T06:12:38.902Z,16.80
2018-08-30T06:15:06.171Z,16.80
2018-08-30T06:17:33.366Z,17.00
2018-08-30T06:20:00.578Z,17.00
2018-08-30T06:22:27.761Z,16.90
2018-08-30T06:24:55.053Z,16.90
2018-08-30T06:27:22.303Z,16.80
2018-08-30T06:29:49.595Z,16.80
2018-08-30T06:32:16.961Z,17.00
2018-08-30T06:34:44.377Z,17.10
2018-08-30T06:37:11.732Z,17.20
2018-08-30T06:39:38.902Z,17.40
2018-08-30T06:42:06.064Z,17.40
2018-08-30T06:44:33.226Z,17.50
2018-08-30T06:47:00.429Z,17.50
2018-08-30T06:49:27.558Z,17.60
2018-08-30T06:51:54.750Z,17.80
2018-08-30T06:54:21.933Z,18.00
2018-08-30T06:56:49.253Z,18.10
2018-08-30T06:59:16.636Z,18.10
2018-08-30T07:01:44.001Z,18.00
2018-08-30T07:04:11.316Z,18.20
2018-08-30T07:06:38.424Z,18.10
2018-08-30T07:09:07.563Z,18.10
2018-08-30T07:11:34.746Z,18.10
2018-08-30T07:14:02.188Z,18.10
2018-08-30T07:16:29.378Z,18.10
2018-08-30T07:18:56.595Z,18.20
2018-08-30T07:21:23.879Z,18.20
2018-08-30T07:23:51.359Z,18.50
2018-08-30T07:26:18.596Z,18.50
2018-08-30T07:28:45.899Z,18.80
2018-08-30T07:31:13.213Z,19.10
2018-08-30T07:33:40.406Z,19.10
2018-08-30T07:36:07.604Z,19.30
2018-08-30T07:38:34.833Z,19.20
2018-08-30T07:41:02.166Z,19.30
2018-08-30T07:43:29.340Z,19.30
2018-08-30T07:45:56.475Z,19.20
2018-08-30T07:48:23.655Z,19.30
2018-08-30T07:50:50.943Z,19.50
2018-08-30T07:53:18.194Z,19.50
2018-08-30T07:55:45.535Z,19.40
2018-08-30T07:58:12.948Z,19.60
2018-08-30T08:00:40.176Z,19.40
2018-08-30T08:03:07.367Z,19.50
2018-08-30T08:05:34.627Z,19.70
2018-08-30T08:08:02.106Z,20.10
2018-08-30T08:10:29.330Z,22.20
2018-08-30T08:12:56.471Z,23.50
2018-08-30T08:15:23.685Z,24.90
2018-08-30T08:17:50.903Z,27.00
2018-08-30T08:20:18.230Z,28.40
2018-08-30T08:22:45.564Z,27.70
2018-08-30T08:25:13.037Z,28.10
2018-08-30T08:27:40.192Z,27.80
2018-08-30T08:30:07.357Z,25.90
2018-08-30T08:32:34.629Z,25.00
2018-08-30T08:35:01.929Z,25.00
2018-08-30T08:37:29.134Z,24.00
2018-08-30T08:39:56.424Z,24.20
2018-08-30T08:42:23.802Z,23.90
2018-08-30T08:44:51.094Z,23.80
2018-08-30T08:47:18.370Z,24.10
2018-08-30T08:49:45.723Z,23.80
2018-08-30T08:52:13.105Z,25.30
2018-08-30T08:54:40.247Z,25.80
2018-08-30T08:57:07.451Z,25.30
2018-08-30T08:59:34.664Z,26.40
2018-08-30T09:02:02.050Z,27.60
2018-08-30T09:04:29.239Z,27.60
2018-08-30T09:06:56.703Z,27.80
2018-08-30T09:09:24.004Z,26.40
2018-08-30T09:11:51.223Z,25.70
2018-08-30T09:14:18.577Z,24.90
2018-08-30T09:16:45.915Z,25.10
2018-08-30T09:19:13.242Z,25.50
2018-08-30T09:21:40.475Z,24.40
2018-08-30T09:24:07.771Z,23.20
2018-08-30T09:26:35.239Z,22.20
2018-08-30T09:29:02.394Z,21.90
2018-08-30T09:31:29.602Z,21.90
2018-08-30T09:33:56.932Z,21.90
2018-08-30T09:36:24.085Z,22.60
2018-08-30T09:38:51.348Z,23.20
2018-08-30T09:41:18.618Z,23.80
2018-08-30T09:43:46.097Z,24.10
2018-08-30T09:46:13.701Z,24.40
2018-08-30T09:48:47.779Z,23.60
2018-08-30T09:51:15.039Z,22.80
2018-08-30T09:53:42.421Z,22.90
2018-08-30T09:56:09.546Z,23.30
2018-08-30T09:58:36.747Z,23.20
2018-08-30T10:01:09.861Z,23.00
2018-08-30T10:03:37.129Z,23.20
2018-08-30T10:06:04.411Z,23.20
2018-08-30T10:08:31.576Z,23.00
2018-08-30T10:10:58.777Z,23.40
2018-08-30T10:13:26.020Z,23.60
2018-08-30T10:15:53.285Z,23.60
2018-08-30T10:18:20.459Z,23.50
2018-08-30T10:20:47.753Z,23.60
2018-08-30T10:23:15.049Z,23.70
2018-08-30T10:25:42.563Z,23.50
2018-08-30T10:28:09.754Z,23.20
2018-08-30T10:30:37.025Z,22.60
2018-08-30T10:33:04.632Z,22.10
2018-08-30T10:35:31.855Z,22.00
2018-08-30T10:37:59.055Z,22.50
2018-08-30T10:40:26.307Z,22.90
2018-08-30T10:42:53.648Z,22.90
2018-08-30T10:45:20.995Z,23.30
2018-08-30T10:47:48.343Z,23.60
2018-08-30T10:50:15.679Z,23.90
2018-08-30T10:52:43.077Z,24.20
2018-08-30T10:55:10.433Z,24.30
2018-08-30T10:57:37.642Z,24.30
2018-08-30T11:00:04.958Z,24.20
2018-08-30T11:02:32.219Z,23.90
2018-08-30T11:04:59.471Z,23.30
2018-08-30T11:07:26.744Z,23.00
2018-08-30T11:09:53.971Z,23.20
2018-08-30T11:12:21.366Z,23.30
2018-08-30T11:14:48.721Z,23.60
2018-08-30T11:17:16.109Z,23.80
2018-08-30T11:19:43.567Z,23.80
2018-08-30T11:22:10.910Z,23.80
2018-08-30T11:24:38.195Z,23.40
2018-08-30T11:27:05.544Z,23.20
2018-08-30T11:29:32.726Z,22.80
2018-08-30T11:31:59.930Z,23.00
2018-08-30T11:34:27.127Z,23.00
2018-08-30T11:36:54.494Z,23.00
2018-08-30T11:39:21.704Z,23.20
2018-08-30T11:41:49.207Z,23.80
2018-08-30T11:44:16.864Z,24.00
2018-08-30T11:46:44.192Z,24.00
2018-08-30T11:49:11.431Z,24.20
2018-08-30T11:51:38.748Z,24.30
2018-08-30T11:54:06.013Z,23.40
2018-08-30T11:56:33.314Z,23.10
2018-08-30T11:59:00.666Z,23.40
2018-08-30T12:01:27.810Z,23.00
2018-08-30T12:03:56.236Z,23.60
2018-08-30T12:06:23.846Z,24.30
2018-08-30T12:08:51.102Z,23.90
2018-08-30T12:11:18.480Z,23.80
2018-08-30T12:13:45.716Z,23.90
2018-08-30T12:16:13.209Z,23.70
2018-08-30T12:18:40.665Z,23.60
2018-08-30T12:21:07.944Z,23.60
2018-08-30T12:23:35.168Z,23.30
2018-08-30T12:26:02.319Z,23.60
2018-08-30T12:28:29.909Z,23.70
2018-08-30T12:30:57.290Z,23.30
2018-08-30T12:33:24.535Z,22.30
2018-08-30T12:35:51.909Z,22.30
2018-08-30T12:38:18.981Z,22.00
2018-08-30T12:40:46.429Z,22.00
2018-08-30T12:43:13.870Z,21.90
2018-08-30T12:45:40.996Z,22.00
2018-08-30T12:48:08.228Z,21.90
2018-08-30T12:50:35.693Z,22.00
2018-08-30T12:53:02.926Z,21.90
2018-08-30T12:55:30.146Z,22.10
2018-08-30T12:57:57.433Z,22.40
2018-08-30T13:00:25.032Z,22.80
2018-08-30T13:02:52.399Z,23.00
2018-08-30T13:05:19.612Z,23.30
2018-08-30T13:07:46.975Z,23.20
2018-08-30T13:10:14.393Z,23.50
2018-08-30T13:12:41.771Z,23.20
2018-08-30T13:15:09.270Z,22.70
2018-08-30T13:17:36.234Z,22.60
2018-08-30T13:20:03.580Z,22.70
2018-08-30T13:22:30.913Z,22.90
2018-08-30T13:24:58.084Z,22.90
2018-08-30T13:27:25.046Z,22.70
2018-08-30T13:29:52.442Z,22.50
2018-08-30T13:32:19.879Z,22.60
2018-08-30T13:34:47.308Z,22.70
2018-08-30T13:37:14.444Z,22.80
2018-08-30T13:39:41.775Z,23.10
2018-08-30T13:42:09.362Z,23.50
2018-08-30T13:44:36.358Z,24.00
2018-08-30T13:47:03.856Z,24.40
2018-08-30T13:49:30.900Z,24.50
2018-08-30T13:51:58.513Z,24.40
2018-08-30T13:54:25.703Z,24.20
2018-08-30T13:56:53.083Z,24.20
2018-08-30T13:59:20.375Z,24.00
2018-08-30T14:01:47.786Z,23.70
2018-08-30T14:04:14.942Z,23.60
2018-08-30T14:06:42.459Z,23.70
2018-08-30T14:09:09.564Z,23.60
2018-08-30T14:11:36.821Z,23.50
2018-08-30T14:14:04.052Z,23.20
2018-08-30T14:16:30.914Z,22.70
2018-08-30T14:18:58.056Z,22.30
2018-08-30T14:21:25.215Z,22.50
2018-08-30T14:23:52.470Z,22.50
2018-08-30T14:26:19.663Z,22.70
2018-08-30T14:28:47.108Z,22.70
2018-08-30T14:31:14.573Z,22.80
2018-08-30T14:33:41.807Z,22.30
2018-08-30T14:36:09.071Z,22.30
2018-08-30T14:38:36.220Z,22.10
2018-08-30T14:41:03.779Z,22.10
2018-08-30T14:43:30.737Z,21.90
2018-08-30T14:45:57.993Z,21.70
2018-08-30T14:48:25.219Z,21.70
2018-08-30T14:50:52.628Z,21.80
2018-08-30T14:53:19.999Z,21.70
2018-08-30T14:55:47.209Z,22.20
2018-08-30T14:58:14.463Z,22.30
2018-08-30T15:00:41.777Z,22.40
2018-08-30T15:03:09.035Z,22.20
2018-08-30T15:05:36.405Z,22.20
2018-08-30T15:08:03.606Z,22.20
2018-08-30T15:10:30.855Z,22.30
2018-08-30T15:12:58.107Z,22.30
2018-08-30T15:15:25.336Z,22.20
2018-08-30T15:17:52.590Z,22.20
2018-08-30T15:20:19.956Z,22.30
2018-08-30T15:22:47.336Z,22.30
2018-08-30T15:25:14.856Z,22.40
2018-08-30T15:27:42.194Z,22.30
2018-08-30T15:30:09.486Z,22.00
2018-08-30T15:32:36.710Z,21.90
2018-08-30T15:35:04.142Z,21.70
2018-08-30T15:37:31.278Z,21.80
2018-08-30T15:39:58.423Z,21.90
2018-08-30T15:42:25.672Z,21.70
2018-08-30T15:44:52.856Z,21.60
2018-08-30T15:47:20.279Z,21.50
2018-08-30T15:49:47.588Z,21.20
2018-08-30T15:52:14.950Z,21.00
2018-08-30T15:54:42.338Z,20.80
2018-08-30T15:57:09.608Z,20.80
2018-08-30T15:59:36.805Z,20.90
2018-08-30T16:02:04.187Z,21.00
2018-08-30T16:04:31.419Z,21.20
2018-08-30T16:06:58.592Z,21.20
2018-08-30T16:09:25.847Z,21.20
2018-08-30T16:11:53.078Z,21.20
2018-08-30T16:14:20.343Z,21.10
2018-08-30T16:16:47.606Z,20.80
2018-08-30T16:19:14.955Z,20.60
2018-08-30T16:21:42.254Z,20.50
2018-08-30T16:24:09.581Z,20.40
2018-08-30T16:26:36.823Z,20.30
2018-08-30T16:29:04.114Z,20.20
2018-08-30T16:31:31.351Z,20.20
2018-08-30T16:33:58.505Z,20.20
2018-08-30T16:36:25.805Z,20.30
2018-08-30T16:38:53.012Z,20.50
2018-08-30T16:41:20.295Z,20.40
2018-08-30T16:43:47.798Z,20.40
2018-08-30T16:46:15.133Z,20.50
2018-08-30T16:48:42.727Z,20.60
2018-08-30T16:51:09.972Z,20.80
2018-08-30T16:53:37.221Z,20.60
2018-08-30T16:56:04.593Z,20.50
2018-08-30T16:58:31.781Z,20.30
2018-08-30T17:00:59.401Z,20.10
2018-08-30T17:03:26.624Z,19.90
2018-08-30T17:05:53.942Z,19.70
2018-08-30T17:08:21.295Z,19.60
2018-08-30T17:10:48.593Z,19.60
2018-08-30T17:13:15.955Z,19.40
2018-08-30T17:15:43.579Z,19.40
2018-08-30T17:18:10.820Z,19.30
2018-08-30T17:20:39.932Z,19.30
2018-08-30T17:23:07.370Z,19.40
2018-08-30T17:25:34.617Z,19.30
2018-08-30T17:28:01.835Z,19.20
2018-08-30T17:30:29.135Z,19.20
2018-08-30T17:32:56.340Z,19.10
2018-08-30T17:35:24.218Z,19.00
2018-08-30T17:37:51.307Z,18.90
2018-08-30T17:40:18.747Z,18.70
2018-08-30T17:42:46.640Z,18.70
2018-08-30T17:45:14.135Z,18.60
2018-08-30T17:47:41.334Z,18.60
2018-08-30T17:50:08.717Z,18.50
2018-08-30T17:52:35.896Z,18.40
2018-08-30T17:55:03.072Z,18.30
2018-08-30T17:57:30.352Z,18.20
2018-08-30T17:59:57.748Z,18.20
2018-08-30T18:02:25.049Z,18.10
2018-08-30T18:04:52.265Z,18.00
2018-08-30T18:07:19.609Z,17.90
2018-08-30T18:09:46.944Z,17.80
2018-08-30T18:12:14.376Z,17.70
2018-08-30T18:14:41.575Z,17.70
2018-08-30T18:17:08.719Z,17.60
2018-08-30T18:19:35.858Z,17.50
2018-08-30T18:22:03.027Z,17.40
2018-08-30T18:24:30.146Z,17.40
2018-08-30T18:26:57.754Z,17.40
2018-08-30T18:29:24.915Z,17.30
2018-08-30T18:31:52.059Z,17.20
2018-08-30T18:34:19.499Z,17.00
2018-08-30T18:36:46.697Z,16.80
2018-08-30T18:39:13.824Z,16.80
2018-08-30T18:41:40.943Z,16.70
2018-08-30T18:44:08.091Z,16.60
2018-08-30T18:46:35.426Z,16.50
2018-08-30T18:49:02.550Z,16.40
2018-08-30T18:51:29.829Z,16.40
2018-08-30T18:53:56.988Z,16.30
2018-08-30T18:56:24.114Z,16.40
2018-08-30T18:58:51.269Z,16.30
2018-08-30T19:01:18.383Z,16.20
2018-08-30T19:03:45.636Z,16.30
2018-08-30T19:06:13.105Z,16.20
2018-08-30T19:08:40.225Z,16.10
2018-08-30T19:11:07.366Z,16.00
2018-08-30T19:13:34.513Z,16.00
2018-08-30T19:16:07.349Z,16.00
2018-08-30T19:18:40.200Z,16.00
2018-08-30T19:21:07.364Z,15.90
2018-08-30T19:23:34.719Z,15.70
2018-08-30T19:26:01.889Z,15.60
2018-08-30T19:28:29.050Z,15.60
2018-08-30T19:30:56.206Z,15.60
2018-08-30T19:33:23.331Z,15.50
2018-08-30T19:35:56.180Z,15.50
2018-08-30T19:38:23.326Z,15.50
2018-08-30T19:40:56.078Z,15.40
2018-08-30T19:43:23.194Z,15.30
2018-08-30T19:45:50.322Z,15.20
2018-08-30T19:48:17.566Z,15.20
2018-08-30T19:50:44.736Z,15.10
2018-08-30T19:53:12.004Z,15.10
2018-08-30T19:55:39.133Z,15.00
2018-08-30T19:58:06.267Z,14.90
2018-08-30T20:00:33.407Z,14.80
2018-08-30T20:03:00.584Z,14.80
2018-08-30T20:05:27.760Z,14.80
2018-08-30T20:07:55.138Z,14.70
2018-08-30T20:10:22.262Z,14.70
2018-08-30T20:12:49.390Z,14.60
2018-08-30T20:15:16.549Z,14.60
2018-08-30T20:17:43.682Z,14.60
2018-08-30T20:20:10.890Z,14.60
2018-08-30T20:22:38.108Z,14.50
2018-08-30T20:25:05.552Z,14.40
2018-08-30T20:27:32.686Z,14.40
2018-08-30T20:29:59.789Z,14.30
2018-08-30T20:32:26.900Z,14.20
2018-08-30T20:34:54.027Z,14.10
2018-08-30T20:37:21.167Z,14.00
2018-08-30T20:39:48.300Z,14.00
2018-08-30T20:42:15.477Z,13.90
2018-08-30T20:44:42.640Z,13.90
2018-08-30T20:47:09.750Z,13.90
2018-08-30T20:49:36.983Z,14.00
2018-08-30T20:52:04.223Z,13.90
2018-08-30T20:54:31.334Z,14.00
2018-08-30T20:56:58.487Z,13.90
2018-08-30T20:59:25.650Z,13.90
2018-08-30T21:01:52.782Z,13.90
2018-08-30T21:04:19.886Z,13.90
2018-08-30T21:06:47.086Z,13.90
2018-08-30T21:09:14.245Z,13.90
2018-08-30T21:11:41.362Z,14.00
2018-08-30T21:14:08.481Z,13.90
2018-08-30T21:16:35.614Z,13.90
2018-08-30T21:19:02.789Z,13.80
2018-08-30T21:21:30.231Z,13.70
2018-08-30T21:23:57.375Z,13.60
2018-08-30T21:26:24.481Z,13.60
2018-08-30T21:28:51.605Z,13.40
2018-08-30T21:31:18.742Z,13.40
2018-08-30T21:33:46.030Z,13.40
2018-08-30T21:36:13.171Z,13.30
2018-08-30T21:38:40.547Z,13.30
2018-08-30T21:41:07.650Z,13.50
2018-08-30T21:43:34.777Z,13.50
2018-08-30T21:46:01.955Z,13.60
2018-08-30T21:48:29.083Z,13.70
2018-08-30T21:50:56.203Z,13.70
2018-08-30T21:53:23.306Z,13.70
2018-08-30T21:55:50.452Z,13.70
2018-08-30T21:58:17.598Z,13.80
2018-08-30T22:00:44.925Z,13.90
2018-08-30T22:03:12.168Z,14.00
2018-08-30T22:05:39.340Z,14.00
2018-08-30T22:08:06.458Z,14.00
2018-08-30T22:10:33.581Z,13.90
2018-08-30T22:13:00.695Z,13.90
2018-08-30T22:15:27.802Z,13.90
2018-08-30T22:17:54.911Z,13.90
2018-08-30T22:20:22.066Z,13.80
2018-08-30T22:22:49.218Z,13.90
2018-08-30T22:25:16.371Z,13.80
2018-08-30T22:27:43.502Z,13.70
2018-08-30T22:30:10.897Z,13.50
2018-08-30T22:32:38.263Z,13.50
2018-08-30T22:35:05.902Z,13.40
2018-08-30T22:37:33.023Z,13.40
2018-08-30T22:40:00.211Z,13.40
2018-08-30T22:42:27.395Z,13.20
2018-08-30T22:44:54.474Z,13.20
2018-08-30T22:47:21.578Z,13.10
2018-08-30T22:49:48.764Z,13.10
2018-08-30T22:52:16.013Z,13.00
2018-08-30T22:54:43.140Z,12.90
2018-08-30T22:57:10.279Z,12.90
2018-08-30T22:59:37.465Z,12.90
2018-08-30T23:02:04.662Z,12.90
2018-08-30T23:04:31.771Z,13.00
2018-08-30T23:06:59.046Z,12.90
2018-08-30T23:09:26.157Z,12.90
2018-08-30T23:11:53.290Z,13.10
2018-08-30T23:14:20.419Z,13.10
2018-08-30T23:16:47.584Z,13.20
2018-08-30T23:19:14.744Z,13.20
2018-08-30T23:21:41.907Z,13.20
2018-08-30T23:24:09.019Z,13.30
2018-08-30T23:26:36.142Z,13.30
2018-08-30T23:29:03.278Z,13.30
2018-08-30T23:31:30.415Z,13.40
2018-08-30T23:33:57.520Z,13.30
2018-08-30T23:36:24.657Z,13.20
2018-08-30T23:38:51.786Z,13.20
2018-08-30T23:41:18.944Z,13.30
2018-08-30T23:43:46.175Z,13.30
2018-08-30T23:46:13.407Z,13.30
2018-08-30T23:48:40.525Z,13.40
2018-08-30T23:51:07.662Z,13.40
2018-08-30T23:53:34.786Z,13.30
2018-08-30T23:56:01.950Z,13.50
2018-08-30T23:58:40.771Z,13.40
